sensor_id;sensor_type;location;lat;lon;timestamp;temperature;humidity
38118;DHT22;23928;47.562;7.508;2023-11-21T00:00:15;9.10;99.90
38118;DHT22;23928;47.562;7.508;2023-11-21T00:02:41;9.10;99.90
38118;DHT22;23928;47.562;7.508;2023-11-21T00:05:08;9.10;99.90
38118;DHT22;23928;47.562;7.508;2023-11-21T00:07:38;9.00;99.90
38118;DHT22;23928;47.562;7.508;2023-11-21T00:10:04;9.00;99.90
38118;DHT22;23928;47.562;7.508;2023-11-21T00:12:36;9.00;99.90
38118;DHT22;23928;47.562;7.508;2023-11-21T00:15:03;9.00;99.90
38118;DHT22;23928;47.562;7.508;2023-11-21T00:17:30;9.00;99.90
38118;DHT22;23928;47.562;7.508;2023-11-21T00:19:56;9.10;99.90
38118;DHT22;23928;47.562;7.508;2023-11-21T00:22:21;8.90;99.90
38118;DHT22;23928;47.562;7.508;2023-11-21T00:24:47;8.90;99.90
38118;DHT22;23928;47.562;7.508;2023-11-21T00:27:13;9.00;99.90
38118;DHT22;23928;47.562;7.508;2023-11-21T00:29:39;9.00;99.90
38118;DHT22;23928;47.562;7.508;2023-11-21T00:32:06;9.10;99.90
38118;DHT22;23928;47.562;7.508;2023-11-21T00:34:32;9.20;99.90
38118;DHT22;23928;47.562;7.508;2023-11-21T00:36:58;9.00;99.90
38118;DHT22;23928;47.562;7.508;2023-11-21T00:39:24;9.00;99.90
38118;DHT22;23928;47.562;7.508;2023-11-21T00:41:51;9.10;99.90
38118;DHT22;23928;47.562;7.508;2023-11-21T00:44:17;9.00;99.90
38118;DHT22;23928;47.562;7.508;2023-11-21T00:46:43;9.00;99.90
38118;DHT22;23928;47.562;7.508;2023-11-21T00:49:08;9.00;99.90
38118;DHT22;23928;47.562;7.508;2023-11-21T00:51:34;9.00;99.90
38118;DHT22;23928;47.562;7.508;2023-11-21T00:54:00;8.90;99.90
38118;DHT22;23928;47.562;7.508;2023-11-21T00:56:25;8.90;99.90
38118;DHT22;23928;47.562;7.508;2023-11-21T00:58:51;8.90;99.90
38118;DHT22;23928;47.562;7.508;2023-11-21T01:01:18;9.00;99.90
38118;DHT22;23928;47.562;7.508;2023-11-21T01:03:46;8.90;99.90
38118;DHT22;23928;47.562;7.508;2023-11-21T01:06:11;8.80;99.90
38118;DHT22;23928;47.562;7.508;2023-11-21T01:08:37;8.80;99.90
38118;DHT22;23928;47.562;7.508;2023-11-21T01:11:03;8.70;99.90
38118;DHT22;23928;47.562;7.508;2023-11-21T01:13:28;8.80;99.90
38118;DHT22;23928;47.562;7.508;2023-11-21T01:15:55;8.80;99.90
38118;DHT22;23928;47.562;7.508;2023-11-21T01:18:21;8.80;99.90
38118;DHT22;23928;47.562;7.508;2023-11-21T01:20:48;8.90;99.90
38118;DHT22;23928;47.562;7.508;2023-11-21T01:23:14;8.80;99.90
38118;DHT22;23928;47.562;7.508;2023-11-21T01:25:39;8.80;99.90
38118;DHT22;23928;47.562;7.508;2023-11-21T01:28:05;8.80;99.90
38118;DHT22;23928;47.562;7.508;2023-11-21T01:30:31;8.80;99.90
38118;DHT22;23928;47.562;7.508;2023-11-21T01:32:58;8.80;99.90
38118;DHT22;23928;47.562;7.508;2023-11-21T01:35:23;8.80;99.90
38118;DHT22;23928;47.562;7.508;2023-11-21T01:37:49;8.80;99.90
38118;DHT22;23928;47.562;7.508;2023-11-21T01:40:14;8.80;99.90
38118;DHT22;23928;47.562;7.508;2023-11-21T01:42:41;8.80;99.90
38118;DHT22;23928;47.562;7.508;2023-11-21T01:45:09;8.80;99.90
38118;DHT22;23928;47.562;7.508;2023-11-21T01:47:35;8.70;99.90
38118;DHT22;23928;47.562;7.508;2023-11-21T01:50:02;8.70;99.90
38118;DHT22;23928;47.562;7.508;2023-11-21T01:52:30;8.70;99.90
38118;DHT22;23928;47.562;7.508;2023-11-21T01:54:56;8.70;99.90
38118;DHT22;23928;47.562;7.508;2023-11-21T01:57:22;8.60;99.90
38118;DHT22;23928;47.562;7.508;2023-11-21T01:59:49;8.70;99.90
38118;DHT22;23928;47.562;7.508;2023-11-21T02:02:15;8.70;99.90
38118;DHT22;23928;47.562;7.508;2023-11-21T02:04:41;8.60;99.90
38118;DHT22;23928;47.562;7.508;2023-11-21T02:07:07;8.50;99.90
38118;DHT22;23928;47.562;7.508;2023-11-21T02:09:33;8.60;99.90
38118;DHT22;23928;47.562;7.508;2023-11-21T02:12:00;8.70;99.90
38118;DHT22;23928;47.562;7.508;2023-11-21T02:14:28;8.60;99.90
38118;DHT22;23928;47.562;7.508;2023-11-21T02:16:55;8.60;99.90
38118;DHT22;23928;47.562;7.508;2023-11-21T02:19:23;8.60;99.90
38118;DHT22;23928;47.562;7.508;2023-11-21T02:21:51;8.60;99.90
38118;DHT22;23928;47.562;7.508;2023-11-21T02:24:23;8.60;99.90
38118;DHT22;23928;47.562;7.508;2023-11-21T02:26:49;8.60;99.90
38118;DHT22;23928;47.562;7.508;2023-11-21T02:29:18;8.70;99.90
38118;DHT22;23928;47.562;7.508;2023-11-21T02:31:47;8.80;99.90
38118;DHT22;23928;47.562;7.508;2023-11-21T02:34:16;8.80;99.90
38118;DHT22;23928;47.562;7.508;2023-11-21T02:36:43;8.80;99.90
38118;DHT22;23928;47.562;7.508;2023-11-21T02:39:10;8.80;99.90
38118;DHT22;23928;47.562;7.508;2023-11-21T02:41:37;8.80;99.90
38118;DHT22;23928;47.562;7.508;2023-11-21T02:44:04;8.60;99.90
38118;DHT22;23928;47.562;7.508;2023-11-21T02:46:32;8.80;99.90
38118;DHT22;23928;47.562;7.508;2023-11-21T02:49:02;8.80;99.90
38118;DHT22;23928;47.562;7.508;2023-11-21T02:51:28;8.80;99.90
38118;DHT22;23928;47.562;7.508;2023-11-21T02:53:54;8.80;99.90
38118;DHT22;23928;47.562;7.508;2023-11-21T02:56:19;8.80;99.90
38118;DHT22;23928;47.562;7.508;2023-11-21T02:58:45;8.70;99.90
38118;DHT22;23928;47.562;7.508;2023-11-21T03:01:11;8.80;99.90
38118;DHT22;23928;47.562;7.508;2023-11-21T03:03:39;8.80;99.90
38118;DHT22;23928;47.562;7.508;2023-11-21T03:06:06;8.90;99.90
38118;DHT22;23928;47.562;7.508;2023-11-21T03:08:31;8.80;99.90
38118;DHT22;23928;47.562;7.508;2023-11-21T03:10:57;8.70;99.90
38118;DHT22;23928;47.562;7.508;2023-11-21T03:13:23;8.70;99.90
38118;DHT22;23928;47.562;7.508;2023-11-21T03:15:49;8.70;99.90
38118;DHT22;23928;47.562;7.508;2023-11-21T03:18:15;8.70;99.90
38118;DHT22;23928;47.562;7.508;2023-11-21T03:20:40;8.70;99.90
38118;DHT22;23928;47.562;7.508;2023-11-21T03:23:06;8.80;99.90
38118;DHT22;23928;47.562;7.508;2023-11-21T03:25:32;8.70;99.90
38118;DHT22;23928;47.562;7.508;2023-11-21T03:27:58;8.70;99.90
38118;DHT22;23928;47.562;7.508;2023-11-21T03:30:23;8.60;99.90
38118;DHT22;23928;47.562;7.508;2023-11-21T03:32:49;8.70;99.90
38118;DHT22;23928;47.562;7.508;2023-11-21T03:35:14;8.60;99.90
38118;DHT22;23928;47.562;7.508;2023-11-21T03:37:40;8.70;99.90
38118;DHT22;23928;47.562;7.508;2023-11-21T03:40:07;8.70;99.90
38118;DHT22;23928;47.562;7.508;2023-11-21T03:42:38;8.80;99.90
38118;DHT22;23928;47.562;7.508;2023-11-21T03:45:05;8.80;99.90
38118;DHT22;23928;47.562;7.508;2023-11-21T03:47:30;8.90;99.90
38118;DHT22;23928;47.562;7.508;2023-11-21T03:49:56;8.90;99.90
38118;DHT22;23928;47.562;7.508;2023-11-21T03:52:22;8.90;99.90
38118;DHT22;23928;47.562;7.508;2023-11-21T03:54:47;8.90;99.90
38118;DHT22;23928;47.562;7.508;2023-11-21T03:57:13;8.90;99.90
38118;DHT22;23928;47.562;7.508;2023-11-21T03:59:42;9.00;99.90
38118;DHT22;23928;47.562;7.508;2023-11-21T04:02:09;8.90;99.90
38118;DHT22;23928;47.562;7.508;2023-11-21T04:04:35;8.70;99.90
38118;DHT22;23928;47.562;7.508;2023-11-21T04:07:01;8.80;99.90
38118;DHT22;23928;47.562;7.508;2023-11-21T04:09:27;8.70;99.90
38118;DHT22;23928;47.562;7.508;2023-11-21T04:11:53;8.80;99.90
38118;DHT22;23928;47.562;7.508;2023-11-21T04:14:20;8.60;99.90
38118;DHT22;23928;47.562;7.508;2023-11-21T04:16:45;8.60;99.90
38118;DHT22;23928;47.562;7.508;2023-11-21T04:19:11;8.60;99.90
38118;DHT22;23928;47.562;7.508;2023-11-21T04:21:40;8.60;99.90
38118;DHT22;23928;47.562;7.508;2023-11-21T04:24:06;8.60;99.90
38118;DHT22;23928;47.562;7.508;2023-11-21T04:26:32;8.60;99.90
38118;DHT22;23928;47.562;7.508;2023-11-21T04:28:57;8.60;99.90
38118;DHT22;23928;47.562;7.508;2023-11-21T04:31:23;8.70;99.90
38118;DHT22;23928;47.562;7.508;2023-11-21T04:33:49;8.70;99.90
38118;DHT22;23928;47.562;7.508;2023-11-21T04:36:14;8.70;99.90
38118;DHT22;23928;47.562;7.508;2023-11-21T04:38:40;8.80;99.90
38118;DHT22;23928;47.562;7.508;2023-11-21T04:41:06;8.80;99.90
38118;DHT22;23928;47.562;7.508;2023-11-21T04:43:32;8.70;99.90
38118;DHT22;23928;47.562;7.508;2023-11-21T04:45:57;8.80;99.90
38118;DHT22;23928;47.562;7.508;2023-11-21T04:48:23;8.50;99.90
38118;DHT22;23928;47.562;7.508;2023-11-21T04:50:48;8.50;99.90
38118;DHT22;23928;47.562;7.508;2023-11-21T04:53:14;8.50;99.90
38118;DHT22;23928;47.562;7.508;2023-11-21T04:55:40;8.50;99.90
38118;DHT22;23928;47.562;7.508;2023-11-21T04:58:07;8.50;99.90
38118;DHT22;23928;47.562;7.508;2023-11-21T05:00:33;8.50;99.90
38118;DHT22;23928;47.562;7.508;2023-11-21T05:02:59;8.40;99.90
38118;DHT22;23928;47.562;7.508;2023-11-21T05:05:26;8.40;99.90
38118;DHT22;23928;47.562;7.508;2023-11-21T05:07:52;8.50;99.90
38118;DHT22;23928;47.562;7.508;2023-11-21T05:10:19;8.40;99.90
38118;DHT22;23928;47.562;7.508;2023-11-21T05:12:45;8.30;99.90
38118;DHT22;23928;47.562;7.508;2023-11-21T05:15:14;8.30;99.90
38118;DHT22;23928;47.562;7.508;2023-11-21T05:17:40;8.30;99.90
38118;DHT22;23928;47.562;7.508;2023-11-21T05:20:11;8.30;99.90
38118;DHT22;23928;47.562;7.508;2023-11-21T05:22:37;8.30;99.90
38118;DHT22;23928;47.562;7.508;2023-11-21T05:25:05;8.40;99.90
38118;DHT22;23928;47.562;7.508;2023-11-21T05:27:31;8.40;99.90
38118;DHT22;23928;47.562;7.508;2023-11-21T05:29:57;8.40;99.90
38118;DHT22;23928;47.562;7.508;2023-11-21T05:32:26;8.30;99.90
38118;DHT22;23928;47.562;7.508;2023-11-21T05:34:52;8.20;99.90
38118;DHT22;23928;47.562;7.508;2023-11-21T05:37:18;8.20;99.90
38118;DHT22;23928;47.562;7.508;2023-11-21T05:39:43;8.00;99.90
38118;DHT22;23928;47.562;7.508;2023-11-21T05:42:09;8.20;99.90
38118;DHT22;23928;47.562;7.508;2023-11-21T05:44:36;8.10;99.90
38118;DHT22;23928;47.562;7.508;2023-11-21T05:47:02;8.00;99.90
38118;DHT22;23928;47.562;7.508;2023-11-21T05:49:29;8.10;99.90
38118;DHT22;23928;47.562;7.508;2023-11-21T05:51:55;8.10;99.90
38118;DHT22;23928;47.562;7.508;2023-11-21T05:54:21;8.00;99.90
38118;DHT22;23928;47.562;7.508;2023-11-21T05:56:47;8.00;99.90
38118;DHT22;23928;47.562;7.508;2023-11-21T05:59:13;8.10;99.90
38118;DHT22;23928;47.562;7.508;2023-11-21T06:01:38;8.00;99.90
38118;DHT22;23928;47.562;7.508;2023-11-21T06:04:05;7.90;99.90
38118;DHT22;23928;47.562;7.508;2023-11-21T06:06:30;8.00;99.90
38118;DHT22;23928;47.562;7.508;2023-11-21T06:08:57;8.20;99.90
38118;DHT22;23928;47.562;7.508;2023-11-21T06:11:22;8.10;99.90
38118;DHT22;23928;47.562;7.508;2023-11-21T06:13:48;8.20;99.90
38118;DHT22;23928;47.562;7.508;2023-11-21T06:16:15;8.20;99.90
38118;DHT22;23928;47.562;7.508;2023-11-21T06:18:43;8.20;99.90
38118;DHT22;23928;47.562;7.508;2023-11-21T06:21:12;8.20;99.90
38118;DHT22;23928;47.562;7.508;2023-11-21T06:23:39;8.10;99.90
38118;DHT22;23928;47.562;7.508;2023-11-21T06:26:05;8.00;99.90
38118;DHT22;23928;47.562;7.508;2023-11-21T06:28:32;8.00;99.90
38118;DHT22;23928;47.562;7.508;2023-11-21T06:30:57;8.00;99.90
38118;DHT22;23928;47.562;7.508;2023-11-21T06:33:24;8.00;99.90
38118;DHT22;23928;47.562;7.508;2023-11-21T06:35:50;8.00;99.90
38118;DHT22;23928;47.562;7.508;2023-11-21T06:38:16;8.00;99.90
38118;DHT22;23928;47.562;7.508;2023-11-21T06:40:42;8.10;99.90
38118;DHT22;23928;47.562;7.508;2023-11-21T06:43:07;8.00;99.90
38118;DHT22;23928;47.562;7.508;2023-11-21T06:45:33;7.90;99.90
38118;DHT22;23928;47.562;7.508;2023-11-21T06:48:00;8.00;99.90
38118;DHT22;23928;47.562;7.508;2023-11-21T06:50:25;7.90;99.90
38118;DHT22;23928;47.562;7.508;2023-11-21T06:52:51;8.00;99.90
38118;DHT22;23928;47.562;7.508;2023-11-21T06:55:16;8.00;99.90
38118;DHT22;23928;47.562;7.508;2023-11-21T06:57:42;8.00;99.90
38118;DHT22;23928;47.562;7.508;2023-11-21T07:00:09;8.00;99.90
38118;DHT22;23928;47.562;7.508;2023-11-21T07:02:35;8.10;99.90
38118;DHT22;23928;47.562;7.508;2023-11-21T07:05:01;8.10;99.90
38118;DHT22;23928;47.562;7.508;2023-11-21T07:07:27;8.00;99.90
38118;DHT22;23928;47.562;7.508;2023-11-21T07:09:53;8.20;99.90
38118;DHT22;23928;47.562;7.508;2023-11-21T07:12:18;8.30;99.90
38118;DHT22;23928;47.562;7.508;2023-11-21T07:14:44;8.30;99.90
38118;DHT22;23928;47.562;7.508;2023-11-21T07:17:11;8.30;99.90
38118;DHT22;23928;47.562;7.508;2023-11-21T07:19:38;8.30;99.90
38118;DHT22;23928;47.562;7.508;2023-11-21T07:22:03;8.30;99.90
38118;DHT22;23928;47.562;7.508;2023-11-21T07:24:31;8.30;99.90
38118;DHT22;23928;47.562;7.508;2023-11-21T07:26:57;8.40;99.90
38118;DHT22;23928;47.562;7.508;2023-11-21T07:29:25;8.40;99.90
38118;DHT22;23928;47.562;7.508;2023-11-21T07:31:52;8.30;99.90
38118;DHT22;23928;47.562;7.508;2023-11-21T07:34:19;8.40;99.90
38118;DHT22;23928;47.562;7.508;2023-11-21T07:36:44;8.50;99.90
38118;DHT22;23928;47.562;7.508;2023-11-21T07:39:10;8.50;99.90
38118;DHT22;23928;47.562;7.508;2023-11-21T07:41:36;8.50;99.90
38118;DHT22;23928;47.562;7.508;2023-11-21T07:44:03;8.50;99.90
38118;DHT22;23928;47.562;7.508;2023-11-21T07:46:29;8.60;99.90
38118;DHT22;23928;47.562;7.508;2023-11-21T07:48:54;8.60;99.90
38118;DHT22;23928;47.562;7.508;2023-11-21T07:51:20;8.70;99.90
38118;DHT22;23928;47.562;7.508;2023-11-21T07:53:46;8.80;99.90
38118;DHT22;23928;47.562;7.508;2023-11-21T07:56:12;8.90;99.90
38118;DHT22;23928;47.562;7.508;2023-11-21T07:58:38;8.90;99.90
38118;DHT22;23928;47.562;7.508;2023-11-21T08:01:04;9.00;99.90
38118;DHT22;23928;47.562;7.508;2023-11-21T08:03:30;9.00;99.90
38118;DHT22;23928;47.562;7.508;2023-11-21T08:05:59;9.10;99.90
38118;DHT22;23928;47.562;7.508;2023-11-21T08:08:25;9.20;99.90
38118;DHT22;23928;47.562;7.508;2023-11-21T08:10:51;9.20;99.90
38118;DHT22;23928;47.562;7.508;2023-11-21T08:13:28;9.40;99.90
38118;DHT22;23928;47.562;7.508;2023-11-21T08:15:55;9.40;99.90
38118;DHT22;23928;47.562;7.508;2023-11-21T08:18:22;9.50;99.90
38118;DHT22;23928;47.562;7.508;2023-11-21T08:20:48;9.40;99.90
38118;DHT22;23928;47.562;7.508;2023-11-21T08:23:15;9.60;99.90
38118;DHT22;23928;47.562;7.508;2023-11-21T08:25:45;9.50;99.90
38118;DHT22;23928;47.562;7.508;2023-11-21T08:28:12;9.40;99.90
38118;DHT22;23928;47.562;7.508;2023-11-21T08:30:37;9.40;99.90
38118;DHT22;23928;47.562;7.508;2023-11-21T08:33:03;9.30;99.90
38118;DHT22;23928;47.562;7.508;2023-11-21T08:35:29;9.20;99.90
38118;DHT22;23928;47.562;7.508;2023-11-21T08:37:55;9.10;99.90
38118;DHT22;23928;47.562;7.508;2023-11-21T08:40:21;9.10;99.90
38118;DHT22;23928;47.562;7.508;2023-11-21T08:42:47;9.20;99.90
38118;DHT22;23928;47.562;7.508;2023-11-21T08:45:17;9.20;99.90
38118;DHT22;23928;47.562;7.508;2023-11-21T08:47:43;9.30;99.90
38118;DHT22;23928;47.562;7.508;2023-11-21T08:50:09;9.40;99.90
38118;DHT22;23928;47.562;7.508;2023-11-21T08:52:35;9.40;99.90
38118;DHT22;23928;47.562;7.508;2023-11-21T08:55:02;9.40;99.90
38118;DHT22;23928;47.562;7.508;2023-11-21T08:57:36;9.40;99.90
38118;DHT22;23928;47.562;7.508;2023-11-21T09:00:09;9.40;99.90
38118;DHT22;23928;47.562;7.508;2023-11-21T09:02:38;9.50;99.90
38118;DHT22;23928;47.562;7.508;2023-11-21T09:05:08;9.60;99.90
38118;DHT22;23928;47.562;7.508;2023-11-21T09:07:35;9.60;99.90
38118;DHT22;23928;47.562;7.508;2023-11-21T09:10:02;9.60;99.90
38118;DHT22;23928;47.562;7.508;2023-11-21T09:12:28;9.50;99.90
38118;DHT22;23928;47.562;7.508;2023-11-21T09:14:54;9.50;99.90
38118;DHT22;23928;47.562;7.508;2023-11-21T09:17:19;9.40;99.90
38118;DHT22;23928;47.562;7.508;2023-11-21T09:19:45;9.50;99.90
38118;DHT22;23928;47.562;7.508;2023-11-21T09:22:18;9.30;99.90
38118;DHT22;23928;47.562;7.508;2023-11-21T09:24:44;9.40;99.90
38118;DHT22;23928;47.562;7.508;2023-11-21T09:27:09;9.50;99.90
38118;DHT22;23928;47.562;7.508;2023-11-21T09:29:38;9.50;99.90
38118;DHT22;23928;47.562;7.508;2023-11-21T09:32:05;9.50;99.90
38118;DHT22;23928;47.562;7.508;2023-11-21T09:34:33;9.40;99.90
38118;DHT22;23928;47.562;7.508;2023-11-21T09:36:58;9.40;99.90
38118;DHT22;23928;47.562;7.508;2023-11-21T09:39:24;9.40;99.90
38118;DHT22;23928;47.562;7.508;2023-11-21T09:42:35;9.30;99.90
38118;DHT22;23928;47.562;7.508;2023-11-21T09:47:26;9.40;99.90
38118;DHT22;23928;47.562;7.508;2023-11-21T09:49:54;9.40;99.90
38118;DHT22;23928;47.562;7.508;2023-11-21T09:52:26;9.40;99.90
38118;DHT22;23928;47.562;7.508;2023-11-21T09:54:53;9.30;99.90
38118;DHT22;23928;47.562;7.508;2023-11-21T09:57:23;9.40;99.90
38118;DHT22;23928;47.562;7.508;2023-11-21T09:59:51;9.50;99.90
38118;DHT22;23928;47.562;7.508;2023-11-21T10:02:23;9.50;99.90
38118;DHT22;23928;47.562;7.508;2023-11-21T10:04:51;9.60;99.90
38118;DHT22;23928;47.562;7.508;2023-11-21T10:07:18;9.80;99.90
38118;DHT22;23928;47.562;7.508;2023-11-21T10:09:44;9.90;99.90
38118;DHT22;23928;47.562;7.508;2023-11-21T10:12:11;10.10;99.90
38118;DHT22;23928;47.562;7.508;2023-11-21T10:14:41;10.00;99.90
38118;DHT22;23928;47.562;7.508;2023-11-21T10:17:08;10.10;99.90
38118;DHT22;23928;47.562;7.508;2023-11-21T10:19:39;10.10;99.90
38118;DHT22;23928;47.562;7.508;2023-11-21T10:22:05;10.00;99.90
38118;DHT22;23928;47.562;7.508;2023-11-21T10:24:32;10.10;99.90
38118;DHT22;23928;47.562;7.508;2023-11-21T10:26:58;10.10;99.90
38118;DHT22;23928;47.562;7.508;2023-11-21T10:29:25;10.10;99.90
38118;DHT22;23928;47.562;7.508;2023-11-21T10:31:52;10.20;99.90
38118;DHT22;23928;47.562;7.508;2023-11-21T10:34:20;10.30;99.90
38118;DHT22;23928;47.562;7.508;2023-11-21T10:36:46;10.50;99.90
38118;DHT22;23928;47.562;7.508;2023-11-21T10:39:20;10.60;99.90
38118;DHT22;23928;47.562;7.508;2023-11-21T10:41:49;10.70;99.90
38118;DHT22;23928;47.562;7.508;2023-11-21T10:44:15;10.70;99.90
38118;DHT22;23928;47.562;7.508;2023-11-21T10:46:50;10.80;99.90
38118;DHT22;23928;47.562;7.508;2023-11-21T10:49:20;10.80;99.90
38118;DHT22;23928;47.562;7.508;2023-11-21T10:51:46;10.60;99.90
38118;DHT22;23928;47.562;7.508;2023-11-21T10:54:17;10.60;99.90
38118;DHT22;23928;47.562;7.508;2023-11-21T10:56:44;10.50;99.90
38118;DHT22;23928;47.562;7.508;2023-11-21T10:59:10;10.40;99.90
38118;DHT22;23928;47.562;7.508;2023-11-21T11:01:42;10.40;99.90
38118;DHT22;23928;47.562;7.508;2023-11-21T11:04:09;10.20;99.90
38118;DHT22;23928;47.562;7.508;2023-11-21T11:06:41;10.00;99.90
38118;DHT22;23928;47.562;7.508;2023-11-21T11:09:06;10.10;99.90
38118;DHT22;23928;47.562;7.508;2023-11-21T11:11:33;10.20;99.90
38118;DHT22;23928;47.562;7.508;2023-11-21T11:14:01;10.10;99.90
38118;DHT22;23928;47.562;7.508;2023-11-21T11:16:28;10.10;99.90
38118;DHT22;23928;47.562;7.508;2023-11-21T11:18:54;10.30;99.90
38118;DHT22;23928;47.562;7.508;2023-11-21T11:24:36;10.10;99.90
38118;DHT22;23928;47.562;7.508;2023-11-21T11:27:29;10.30;99.90
38118;DHT22;23928;47.562;7.508;2023-11-21T11:35:22;10.20;99.90
38118;DHT22;23928;47.562;7.508;2023-11-21T11:37:50;10.30;99.90
38118;DHT22;23928;47.562;7.508;2023-11-21T11:40:15;10.30;99.90
38118;DHT22;23928;47.562;7.508;2023-11-21T11:42:56;10.20;99.90
38118;DHT22;23928;47.562;7.508;2023-11-21T11:45:25;10.10;99.90
38118;DHT22;23928;47.562;7.508;2023-11-21T11:47:57;10.10;99.90
38118;DHT22;23928;47.562;7.508;2023-11-21T11:50:23;10.10;99.90
38118;DHT22;23928;47.562;7.508;2023-11-21T11:52:51;10.10;99.90
38118;DHT22;23928;47.562;7.508;2023-11-21T11:55:21;10.10;99.90
38118;DHT22;23928;47.562;7.508;2023-11-21T11:57:49;10.20;99.90
38118;DHT22;23928;47.562;7.508;2023-11-21T12:00:19;10.20;99.90
38118;DHT22;23928;47.562;7.508;2023-11-21T12:02:55;10.10;99.90
38118;DHT22;23928;47.562;7.508;2023-11-21T12:05:23;10.10;99.90
38118;DHT22;23928;47.562;7.508;2023-11-21T12:07:51;10.10;99.90
38118;DHT22;23928;47.562;7.508;2023-11-21T12:10:24;10.10;99.90
38118;DHT22;23928;47.562;7.508;2023-11-21T12:12:55;10.10;99.90
38118;DHT22;23928;47.562;7.508;2023-11-21T12:15:22;10.00;99.90
38118;DHT22;23928;47.562;7.508;2023-11-21T12:17:49;10.00;99.90
38118;DHT22;23928;47.562;7.508;2023-11-21T12:20:18;9.80;99.90
38118;DHT22;23928;47.562;7.508;2023-11-21T12:22:48;9.80;99.90
38118;DHT22;23928;47.562;7.508;2023-11-21T12:25:25;9.80;99.90
38118;DHT22;23928;47.562;7.508;2023-11-21T12:27:54;9.70;99.90
38118;DHT22;23928;47.562;7.508;2023-11-21T12:30:22;9.60;99.90
38118;DHT22;23928;47.562;7.508;2023-11-21T12:32:55;9.40;99.90
38118;DHT22;23928;47.562;7.508;2023-11-21T12:35:32;9.30;99.90
38118;DHT22;23928;47.562;7.508;2023-11-21T12:38:00;9.20;99.90
38118;DHT22;23928;47.562;7.508;2023-11-21T12:40:28;9.20;99.90
38118;DHT22;23928;47.562;7.508;2023-11-21T12:42:56;9.10;99.90
38118;DHT22;23928;47.562;7.508;2023-11-21T12:45:26;9.10;99.90
38118;DHT22;23928;47.562;7.508;2023-11-21T12:47:56;9.20;99.90
38118;DHT22;23928;47.562;7.508;2023-11-21T12:50:26;9.30;99.90
38118;DHT22;23928;47.562;7.508;2023-11-21T12:53:11;9.40;99.90
38118;DHT22;23928;47.562;7.508;2023-11-21T12:55:43;9.50;99.90
38118;DHT22;23928;47.562;7.508;2023-11-21T12:58:15;9.60;99.90
38118;DHT22;23928;47.562;7.508;2023-11-21T13:00:48;9.50;99.90
38118;DHT22;23928;47.562;7.508;2023-11-21T13:03:15;9.60;99.90
38118;DHT22;23928;47.562;7.508;2023-11-21T13:05:44;9.60;99.90
38118;DHT22;23928;47.562;7.508;2023-11-21T13:08:12;9.50;99.90
38118;DHT22;23928;47.562;7.508;2023-11-21T13:10:43;9.50;99.90
38118;DHT22;23928;47.562;7.508;2023-11-21T13:13:12;9.60;99.90
38118;DHT22;23928;47.562;7.508;2023-11-21T13:15:48;9.80;99.90
38118;DHT22;23928;47.562;7.508;2023-11-21T13:18:14;9.80;99.90
38118;DHT22;23928;47.562;7.508;2023-11-21T13:20:41;9.90;99.90
38118;DHT22;23928;47.562;7.508;2023-11-21T13:23:09;9.90;99.90
38118;DHT22;23928;47.562;7.508;2023-11-21T13:25:40;10.00;99.90
38118;DHT22;23928;47.562;7.508;2023-11-21T13:28:07;10.10;99.90
38118;DHT22;23928;47.562;7.508;2023-11-21T13:30:35;9.80;99.90
38118;DHT22;23928;47.562;7.508;2023-11-21T13:33:05;9.80;99.90
38118;DHT22;23928;47.562;7.508;2023-11-21T13:35:36;10.10;99.90
38118;DHT22;23928;47.562;7.508;2023-11-21T13:38:12;9.90;99.90
38118;DHT22;23928;47.562;7.508;2023-11-21T13:40:40;9.90;99.90
38118;DHT22;23928;47.562;7.508;2023-11-21T13:43:10;9.80;99.90
38118;DHT22;23928;47.562;7.508;2023-11-21T13:45:37;10.00;99.90
38118;DHT22;23928;47.562;7.508;2023-11-21T13:48:04;9.90;99.90
38118;DHT22;23928;47.562;7.508;2023-11-21T13:50:32;9.70;99.90
38118;DHT22;23928;47.562;7.508;2023-11-21T13:52:59;10.00;99.90
38118;DHT22;23928;47.562;7.508;2023-11-21T13:55:36;10.00;99.90
38118;DHT22;23928;47.562;7.508;2023-11-21T13:58:02;10.10;99.90
38118;DHT22;23928;47.562;7.508;2023-11-21T14:00:29;10.00;99.90
38118;DHT22;23928;47.562;7.508;2023-11-21T14:03:12;10.00;99.90
38118;DHT22;23928;47.562;7.508;2023-11-21T14:05:47;10.20;99.90
38118;DHT22;23928;47.562;7.508;2023-11-21T14:08:19;10.00;99.90
38118;DHT22;23928;47.562;7.508;2023-11-21T14:10:49;9.90;99.90
38118;DHT22;23928;47.562;7.508;2023-11-21T14:13:26;10.00;99.90
38118;DHT22;23928;47.562;7.508;2023-11-21T14:15:52;10.10;99.90
38118;DHT22;23928;47.562;7.508;2023-11-21T14:18:28;10.20;99.90
38118;DHT22;23928;47.562;7.508;2023-11-21T14:21:06;10.20;99.90
38118;DHT22;23928;47.562;7.508;2023-11-21T14:23:33;10.20;99.90
38118;DHT22;23928;47.562;7.508;2023-11-21T14:26:01;10.10;99.90
38118;DHT22;23928;47.562;7.508;2023-11-21T14:28:27;10.00;99.90
38118;DHT22;23928;47.562;7.508;2023-11-21T14:30:52;10.10;99.90
38118;DHT22;23928;47.562;7.508;2023-11-21T14:33:18;10.10;99.90
38118;DHT22;23928;47.562;7.508;2023-11-21T14:35:44;10.00;99.90
38118;DHT22;23928;47.562;7.508;2023-11-21T14:38:10;9.90;99.90
38118;DHT22;23928;47.562;7.508;2023-11-21T14:40:36;9.90;99.90
38118;DHT22;23928;47.562;7.508;2023-11-21T14:43:03;10.00;99.90
38118;DHT22;23928;47.562;7.508;2023-11-21T14:45:32;9.70;99.90
38118;DHT22;23928;47.562;7.508;2023-11-21T14:47:58;9.90;99.90
38118;DHT22;23928;47.562;7.508;2023-11-21T14:50:32;9.80;99.90
38118;DHT22;23928;47.562;7.508;2023-11-21T14:53:07;9.90;99.90
38118;DHT22;23928;47.562;7.508;2023-11-21T14:55:33;9.90;99.90
38118;DHT22;23928;47.562;7.508;2023-11-21T14:58:18;9.80;99.90
38118;DHT22;23928;47.562;7.508;2023-11-21T15:00:57;9.80;99.90
38118;DHT22;23928;47.562;7.508;2023-11-21T15:03:27;9.90;99.90
38118;DHT22;23928;47.562;7.508;2023-11-21T15:06:08;9.80;99.90
38118;DHT22;23928;47.562;7.508;2023-11-21T15:08:56;9.60;99.90
38118;DHT22;23928;47.562;7.508;2023-11-21T15:11:43;9.70;99.90
38118;DHT22;23928;47.562;7.508;2023-11-21T15:14:08;9.60;99.90
38118;DHT22;23928;47.562;7.508;2023-11-21T15:16:37;9.80;99.90
38118;DHT22;23928;47.562;7.508;2023-11-21T15:19:08;9.70;99.90
38118;DHT22;23928;47.562;7.508;2023-11-21T15:21:36;9.70;99.90
38118;DHT22;23928;47.562;7.508;2023-11-21T15:24:01;9.60;99.90
38118;DHT22;23928;47.562;7.508;2023-11-21T15:26:28;9.30;99.90
38118;DHT22;23928;47.562;7.508;2023-11-21T15:28:54;9.30;99.90
38118;DHT22;23928;47.562;7.508;2023-11-21T15:31:19;9.20;99.90
38118;DHT22;23928;47.562;7.508;2023-11-21T15:33:51;9.10;99.90
38118;DHT22;23928;47.562;7.508;2023-11-21T15:36:17;9.00;99.90
38118;DHT22;23928;47.562;7.508;2023-11-21T15:38:42;9.00;99.90
38118;DHT22;23928;47.562;7.508;2023-11-21T15:41:09;8.90;99.90
38118;DHT22;23928;47.562;7.508;2023-11-21T15:43:37;8.80;99.90
38118;DHT22;23928;47.562;7.508;2023-11-21T15:46:02;8.80;99.90
38118;DHT22;23928;47.562;7.508;2023-11-21T15:48:33;8.80;99.90
38118;DHT22;23928;47.562;7.508;2023-11-21T15:50:59;8.90;99.90
38118;DHT22;23928;47.562;7.508;2023-11-21T15:53:25;8.90;99.90
38118;DHT22;23928;47.562;7.508;2023-11-21T15:55:50;8.80;99.90